Time;durP1;ratioP1;P1;durP2;ratioP2;P2;SDS_P1;SDS_P2;PMS_P1;PMS_P2;Temp;Humidity;BMP_temperature;BMP_pressure;BME280_temperature;BME280_humidity;BME280_pressure;Samples;Min_cycle;Max_cycle;Signal;HPM_P1;HPM_P2
2022/06/05 00:01:53;;;;;;;10.20;9.90;;;16.90;99.90;;;;;;5087086;28;20226;-82
2022/06/05 00:04:43;;;;;;;10.20;9.90;;;16.90;99.90;;;;;;5085486;28;20300;-81
2022/06/05 00:07:18;;;;;;;10.23;9.93;;;16.90;99.90;;;;;;5085862;28;20272;-82
2022/06/05 00:10:05;;;;;;;10.25;9.95;;;16.80;99.90;;;;;;5086739;28;20324;-82
2022/06/05 00:12:44;;;;;;;10.10;9.80;;;16.80;99.90;;;;;;5086647;28;20238;-81
2022/06/05 00:15:13;;;;;;;10.40;10.10;;;16.70;99.90;;;;;;5086234;28;20479;-82
2022/06/05 00:17:42;;;;;;;10.40;10.10;;;16.70;99.90;;;;;;5086140;28;20240;-81
2022/06/05 00:20:12;;;;;;;10.70;10.40;;;16.70;99.90;;;;;;5085745;28;20218;-82
2022/06/05 00:22:41;;;;;;;10.40;10.10;;;16.70;99.90;;;;;;5085890;28;20226;-81
2022/06/05 00:25:22;;;;;;;10.27;9.98;;;16.70;99.90;;;;;;5087298;28;20264;-82
2022/06/05 00:27:59;;;;;;;10.30;10.00;;;16.70;99.90;;;;;;5086406;28;20226;-82
2022/06/05 00:30:35;;;;;;;10.43;10.13;;;16.60;99.90;;;;;;5085646;28;20321;-82
2022/06/05 00:33:18;;;;;;;10.40;10.10;;;16.60;99.90;;;;;;5086186;28;20248;-81
2022/06/05 00:35:54;;;;;;;10.48;10.18;;;16.50;99.90;;;;;;5085927;28;20241;-82
2022/06/05 00:38:41;;;;;;;10.50;10.20;;;16.50;99.90;;;;;;5085183;28;20225;-82
2022/06/05 00:41:38;;;;;;;10.43;10.13;;;16.40;99.90;;;;;;5085734;28;20261;-82
2022/06/05 00:44:06;;;;;;;10.63;10.32;;;16.30;99.90;;;;;;5086896;28;20226;-81
2022/06/05 00:46:37;;;;;;;10.38;10.07;;;16.30;99.90;;;;;;5085234;28;20262;-82
2022/06/05 00:49:07;;;;;;;10.45;10.15;;;16.20;99.90;;;;;;5085239;28;20249;-83
2022/06/05 00:51:35;;;;;;;10.60;10.30;;;16.20;99.90;;;;;;5084695;28;20226;-81
2022/06/05 00:54:04;;;;;;;10.40;10.10;;;16.30;99.90;;;;;;5086416;28;20229;-82
2022/06/05 00:56:43;;;;;;;10.57;10.27;;;16.30;99.90;;;;;;5099071;27;20230;-80
2022/06/05 00:59:14;;;;;;;10.20;9.90;;;16.30;99.90;;;;;;5099947;27;20233;-79
2022/06/05 01:01:42;;;;;;;10.60;10.30;;;16.30;99.90;;;;;;5099989;27;20214;-80
2022/06/05 01:04:11;;;;;;;10.30;10.00;;;16.40;99.90;;;;;;5099827;27;20214;-81
2022/06/05 01:06:40;;;;;;;10.35;10.05;;;16.40;99.90;;;;;;5099365;27;20229;-80
2022/06/05 01:09:09;;;;;;;10.35;10.05;;;16.40;99.90;;;;;;5099585;27;20281;-80
2022/06/05 01:12:05;;;;;;;10.40;10.10;;;16.40;99.90;;;;;;5089661;28;20251;-81
2022/06/05 01:14:43;;;;;;;10.45;10.15;;;16.40;99.90;;;;;;5082882;28;20269;-82
2022/06/05 01:17:22;;;;;;;10.40;10.10;;;16.40;99.90;;;;;;5081494;28;20321;-82
2022/06/05 01:20:00;;;;;;;10.30;10.00;;;16.30;99.90;;;;;;5081089;28;20236;-82
2022/06/05 01:23:14;;;;;;;10.50;10.20;;;16.40;99.90;;;;;;5081397;28;20313;-84
2022/06/05 01:26:00;;;;;;;10.40;10.10;;;16.30;99.90;;;;;;5071561;28;20237;-83
2022/06/05 01:28:32;;;;;;;10.60;10.30;;;16.30;99.90;;;;;;5094429;28;20253;-83
2022/06/05 01:31:18;;;;;;;10.55;10.25;;;16.30;99.90;;;;;;5093182;28;20237;-82
2022/06/05 01:33:55;;;;;;;10.50;10.20;;;16.30;99.90;;;;;;5089762;28;20234;-82
2022/06/05 01:36:33;;;;;;;10.60;10.30;;;16.20;99.90;;;;;;5087528;28;20238;-83
2022/06/05 01:39:05;;;;;;;10.35;10.05;;;16.20;99.90;;;;;;5086015;28;20253;-82
2022/06/05 01:41:41;;;;;;;10.40;10.10;;;16.20;99.90;;;;;;5085841;28;20312;-83
2022/06/05 01:44:20;;;;;;;10.35;10.05;;;16.20;99.90;;;;;;5085331;28;20241;-83
2022/06/05 01:46:49;;;;;;;10.40;10.10;;;16.10;99.90;;;;;;5084916;28;20237;-82
2022/06/05 01:49:27;;;;;;;10.57;10.27;;;16.20;99.90;;;;;;5085068;28;20241;-83
2022/06/05 01:52:05;;;;;;;10.40;10.10;;;16.10;99.90;;;;;;5084038;28;20289;-82
2022/06/05 01:54:44;;;;;;;10.52;10.23;;;16.10;99.90;;;;;;5084361;28;20234;-82
2022/06/05 01:57:22;;;;;;;10.43;10.13;;;16.10;99.90;;;;;;5084659;28;20265;-82
2022/06/05 02:02:48;;;;;;;10.48;10.18;;;16.10;99.90;;;;;;5085311;28;20218;-83
2022/06/05 02:08:13;;;;;;;10.57;10.27;;;16.00;99.90;;;;;;5084574;28;20229;-83
2022/06/05 02:10:50;;;;;;;10.68;10.38;;;15.90;99.90;;;;;;5085732;28;20245;-83
2022/06/05 02:16:08;;;;;;;10.38;10.07;;;15.90;99.90;;;;;;5083606;28;20225;-83
2022/06/05 02:18:36;;;;;;;10.50;10.20;;;15.90;99.90;;;;;;5083949;28;20214;-82
2022/06/05 02:21:06;;;;;;;10.43;10.13;;;15.90;99.90;;;;;;5083574;28;20321;-82
2022/06/05 02:23:35;;;;;;;10.15;9.85;;;15.90;99.90;;;;;;5086285;28;20242;-82
2022/06/05 02:26:05;;;;;;;10.43;10.13;;;15.90;99.90;;;;;;5086520;28;20228;-83
2022/06/05 02:28:37;;;;;;;10.45;10.15;;;15.90;99.90;;;;;;5086839;28;20258;-82
2022/06/05 02:31:22;;;;;;;10.40;10.10;;;15.90;99.90;;;;;;5086471;28;20260;-82
2022/06/05 02:34:03;;;;;;;10.48;10.18;;;15.80;99.90;;;;;;5087933;28;20223;-82
2022/06/05 02:36:41;;;;;;;10.43;10.13;;;15.70;99.90;;;;;;5087566;28;20226;-83
2022/06/05 02:39:20;;;;;;;10.48;10.18;;;15.70;99.90;;;;;;5086830;28;20230;-82
2022/06/05 02:41:57;;;;;;;10.52;10.23;;;15.70;99.90;;;;;;5087079;28;20352;-82
2022/06/05 02:44:45;;;;;;;10.68;10.38;;;15.50;99.90;;;;;;5087851;28;20233;-83
2022/06/05 02:47:23;;;;;;;10.95;10.57;;;15.50;99.90;;;;;;5087941;28;20226;-83
2022/06/05 02:50:10;;;;;;;10.73;10.43;;;15.50;99.90;;;;;;5087943;28;20241;-82
2022/06/05 02:52:39;;;;;;;10.98;10.60;;;15.50;99.90;;;;;;5088642;28;20260;-82
2022/06/05 02:55:15;;;;;;;10.88;10.52;;;15.50;99.90;;;;;;5087647;28;20230;-82
2022/06/05 02:57:46;;;;;;;11.18;10.77;;;15.40;99.90;;;;;;5088443;28;20212;-82
2022/06/05 03:00:23;;;;;;;10.98;10.57;;;15.40;99.90;;;;;;5088206;28;20272;-82
2022/06/05 03:05:40;;;;;;;10.90;10.50;;;15.50;99.90;;;;;;5087356;28;20225;-81
2022/06/05 03:08:19;;;;;;;11.00;10.60;;;15.50;99.90;;;;;;5087213;28;20282;-82
2022/06/05 03:10:47;;;;;;;10.80;10.50;;;15.50;99.90;;;;;;5095206;28;20291;-82
2022/06/05 03:13:17;;;;;;;11.10;10.70;;;15.50;99.90;;;;;;5100505;27;20233;-81
2022/06/05 03:15:49;;;;;;;11.02;10.63;;;15.50;99.90;;;;;;5100295;27;20237;-80
2022/06/05 03:18:17;;;;;;;10.95;10.55;;;15.50;99.90;;;;;;5099359;28;20257;-82
2022/06/05 03:20:45;;;;;;;11.20;10.80;;;15.50;99.90;;;;;;5086390;28;20241;-82
2022/06/05 03:23:15;;;;;;;11.00;10.60;;;15.50;99.90;;;;;;5085225;28;20329;-82
2022/06/05 03:25:44;;;;;;;10.80;10.50;;;15.40;99.90;;;;;;5084947;28;20290;-82
2022/06/05 03:28:13;;;;;;;11.02;10.63;;;15.40;99.90;;;;;;5084586;28;20261;-82
2022/06/05 03:30:43;;;;;;;10.73;10.43;;;15.40;99.90;;;;;;5083916;28;20238;-82
2022/06/05 03:33:22;;;;;;;10.80;10.50;;;15.50;99.90;;;;;;5084365;28;20293;-82
2022/06/05 03:35:50;;;;;;;10.80;10.50;;;15.50;99.90;;;;;;5083427;28;20242;-82
2022/06/05 03:38:21;;;;;;;10.63;10.32;;;15.50;99.90;;;;;;5084098;28;20253;-82
2022/06/05 03:40:50;;;;;;;10.55;10.25;;;15.50;99.90;;;;;;5084523;28;20241;-82
2022/06/05 03:43:19;;;;;;;10.60;10.30;;;15.60;99.90;;;;;;5086913;28;20247;-81
2022/06/05 03:45:48;;;;;;;10.50;10.20;;;15.60;99.90;;;;;;5096635;28;20230;-81
2022/06/05 03:48:27;;;;;;;10.65;10.35;;;15.60;99.90;;;;;;5093371;28;20227;-81
2022/06/05 03:50:56;;;;;;;10.65;10.35;;;15.70;99.90;;;;;;5091387;28;20276;-82
2022/06/05 03:53:26;;;;;;;10.80;10.50;;;15.70;99.90;;;;;;5090936;28;20258;-82
2022/06/05 03:55:55;;;;;;;10.75;10.45;;;15.70;99.90;;;;;;5088612;28;20242;-82
2022/06/05 03:58:25;;;;;;;10.85;10.55;;;15.70;99.90;;;;;;5086748;28;20271;-82
2022/06/05 04:00:53;;;;;;;10.75;10.45;;;15.80;99.90;;;;;;5085646;28;20254;-83
2022/06/05 04:03:33;;;;;;;10.60;10.30;;;15.80;99.90;;;;;;5084785;28;20297;-82
2022/06/05 04:06:01;;;;;;;10.70;10.40;;;15.90;99.90;;;;;;5084213;28;20265;-82
2022/06/05 04:08:30;;;;;;;10.80;10.50;;;16.00;99.90;;;;;;5084612;28;20246;-82
2022/06/05 04:11:01;;;;;;;10.65;10.35;;;16.00;99.90;;;;;;5084407;28;20324;-83
2022/06/05 04:13:30;;;;;;;10.68;10.38;;;16.00;99.90;;;;;;5084693;28;20234;-82
2022/06/05 04:15:59;;;;;;;10.80;10.50;;;16.10;99.90;;;;;;5084742;28;20238;-83
2022/06/05 04:18:40;;;;;;;10.88;10.57;;;16.20;99.90;;;;;;5086265;28;20218;-83
2022/06/05 04:21:09;;;;;;;10.60;10.30;;;16.30;99.90;;;;;;5085068;28;20253;-81
2022/06/05 04:23:37;;;;;;;10.65;10.35;;;16.30;99.90;;;;;;5086575;28;20226;-83
2022/06/05 04:26:09;;;;;;;10.80;10.50;;;16.40;99.90;;;;;;5084129;28;20245;-82
2022/06/05 04:28:37;;;;;;;11.00;10.70;;;16.50;99.90;;;;;;5085794;28;20247;-83
2022/06/05 04:31:06;;;;;;;10.70;10.40;;;16.60;99.90;;;;;;5086400;28;20230;-82
2022/06/05 04:33:39;;;;;;;10.40;10.10;;;16.70;99.90;;;;;;5086046;28;20230;-83
2022/06/05 04:36:07;;;;;;;10.68;10.38;;;16.80;99.90;;;;;;5085436;28;20321;-81
2022/06/05 04:38:34;;;;;;;10.77;10.48;;;16.70;99.90;;;;;;5085812;28;20229;-83
2022/06/05 04:41:05;;;;;;;10.52;10.23;;;16.80;99.90;;;;;;5086905;28;20235;-83
2022/06/05 04:43:33;;;;;;;10.68;10.38;;;16.80;99.90;;;;;;5086998;28;20752;-82
2022/06/05 04:46:04;;;;;;;10.48;10.18;;;16.90;99.90;;;;;;5084236;28;20241;-82
2022/06/05 04:48:33;;;;;;;10.23;9.93;;;17.00;99.90;;;;;;5086766;28;20229;-83
2022/06/05 04:51:12;;;;;;;10.25;9.95;;;17.10;99.90;;;;;;5086572;28;20296;-82
2022/06/05 04:53:40;;;;;;;10.50;10.20;;;17.20;99.90;;;;;;5086390;28;20288;-83
2022/06/05 10:56:14;;;;;;;9.10;8.80;;;20.80;99.90;;;;;;3906423;22;20614;-82
2022/06/05 10:58:54;;;;;;;9.40;9.10;;;20.70;99.90;;;;;;5094364;28;20230;-84
2022/06/05 11:01:56;;;;;;;9.23;8.93;;;20.50;99.90;;;;;;5096046;28;20234;-82
2022/06/05 11:04:43;;;;;;;9.50;9.20;;;20.40;99.90;;;;;;5097168;28;20233;-82
2022/06/05 11:07:39;;;;;;;9.80;9.50;;;20.20;99.90;;;;;;5077645;28;20266;-83
2022/06/05 11:16:19;;;;;;;9.40;9.10;;;19.70;99.90;;;;;;5077668;28;20230;-83
2022/06/05 11:18:58;;;;;;;9.57;9.27;;;19.60;99.90;;;;;;5078009;28;20207;-83
2022/06/05 11:21:26;;;;;;;9.23;8.93;;;19.60;99.90;;;;;;5077676;28;20222;-82
2022/06/05 11:23:57;;;;;;;9.40;9.10;;;19.70;99.90;;;;;;5078193;28;20230;-81
2022/06/05 11:26:35;;;;;;;8.95;8.65;;;19.90;99.90;;;;;;5074969;28;20257;-82
2022/06/05 11:29:20;;;;;;;9.20;8.90;;;20.10;99.90;;;;;;5076006;28;20242;-82
2022/06/05 11:32:09;;;;;;;9.27;8.98;;;20.20;99.90;;;;;;5076120;28;20240;-81
2022/06/05 11:34:54;;;;;;;9.23;8.93;;;20.40;99.90;;;;;;5072815;28;20262;-82
2022/06/05 11:40:46;;;;;;;8.52;8.32;;;20.90;99.90;;;;;;5073047;28;20230;-82
2022/06/05 11:43:33;;;;;;;8.75;8.55;;;21.50;99.90;;;;;;5072326;28;20219;-82
2022/06/05 11:46:21;;;;;;;9.27;8.98;;;22.40;99.90;;;;;;5067336;28;20250;-81
2022/06/05 11:48:58;;;;;;;9.40;9.10;;;22.90;99.90;;;;;;5063688;28;20234;-82
2022/06/05 11:54:23;;;;;;;9.70;9.40;;;24.00;99.90;;;;;;5062939;28;20326;-83
2022/06/05 11:57:10;;;;;;;9.15;8.85;;;24.50;99.90;;;;;;5063506;28;20242;-83
2022/06/05 11:59:48;;;;;;;9.40;9.10;;;24.30;99.90;;;;;;5064007;28;20246;-83
2022/06/05 12:02:48;;;;;;;9.30;9.00;;;23.90;99.90;;;;;;5069519;28;20222;-84
2022/06/05 12:05:31;;;;;;;9.20;8.90;;;23.50;99.90;;;;;;5079389;28;20215;-83
2022/06/05 12:08:09;;;;;;;9.20;8.90;;;23.30;99.90;;;;;;5073465;28;20253;-83
2022/06/05 12:10:50;;;;;;;9.05;8.80;;;23.20;99.90;;;;;;5069726;28;20214;-83
2022/06/05 12:13:35;;;;;;;9.13;8.82;;;23.10;99.90;;;;;;5070048;28;20682;-84
2022/06/05 12:16:13;;;;;;;9.23;8.93;;;23.10;99.90;;;;;;5068425;28;20322;-83
2022/06/05 12:18:53;;;;;;;9.18;8.88;;;23.20;99.90;;;;;;5067953;28;20235;-83
2022/06/05 12:21:29;;;;;;;9.10;8.80;;;23.30;99.90;;;;;;5071440;28;20270;-83
2022/06/05 12:24:08;;;;;;;9.80;9.50;;;23.20;99.90;;;;;;5071438;28;20246;-83
2022/06/05 12:26:46;;;;;;;9.20;8.90;;;23.00;99.90;;;;;;5070139;28;20290;-83
2022/06/05 12:29:24;;;;;;;9.70;9.40;;;23.10;99.90;;;;;;5070623;28;20298;-83
2022/06/05 12:32:06;;;;;;;9.60;9.30;;;23.50;99.90;;;;;;5070314;28;20232;-83
2022/06/05 12:34:43;;;;;;;9.77;9.48;;;24.30;99.90;;;;;;5069002;28;20242;-83
2022/06/05 12:37:21;;;;;;;9.48;9.18;;;25.00;99.90;;;;;;5066184;28;20262;-83
2022/06/05 12:39:53;;;;;;;9.55;9.25;;;25.10;99.90;;;;;;5064552;28;20237;-82
2022/06/05 12:42:31;;;;;;;9.68;9.38;;;25.00;99.90;;;;;;5064213;28;20239;-82
2022/06/05 12:45:07;;;;;;;9.50;9.20;;;24.90;99.90;;;;;;5063187;28;20226;-82
2022/06/05 12:47:56;;;;;;;9.68;9.38;;;24.80;99.90;;;;;;5063563;28;20223;-83
2022/06/05 12:50:41;;;;;;;9.57;9.27;;;24.70;99.90;;;;;;5062210;28;20290;-83
2022/06/05 12:53:28;;;;;;;9.40;9.10;;;24.90;99.90;;;;;;5061869;28;20238;-82
2022/06/05 12:56:08;;;;;;;9.40;9.10;;;25.00;99.90;;;;;;5067864;28;20237;-84
2022/06/05 12:58:53;;;;;;;9.50;9.20;;;25.20;99.90;;;;;;5068563;28;20305;-83
2022/06/05 13:04:18;;;;;;;10.00;9.70;;;25.50;99.90;;;;;;5065804;28;20232;-83
2022/06/05 13:06:58;;;;;;;9.95;9.65;;;25.90;99.90;;;;;;5060844;28;20239;-84
2022/06/05 13:09:35;;;;;;;10.20;9.90;;;26.50;99.90;;;;;;5061375;28;20238;-84
2022/06/05 13:12:14;;;;;;;9.90;9.60;;;26.70;99.90;;;;;;5060978;28;20230;-83
2022/06/05 13:14:51;;;;;;;9.98;9.68;;;26.80;99.90;;;;;;5061155;28;20285;-83
2022/06/05 13:17:38;;;;;;;9.50;9.20;;;26.70;99.90;;;;;;5063254;28;20242;-83
2022/06/05 13:20:25;;;;;;;9.48;9.18;;;26.60;99.90;;;;;;5075514;28;20221;-82
2022/06/05 13:23:03;;;;;;;9.90;9.60;;;26.30;99.90;;;;;;5079897;28;20269;-83
2022/06/05 13:26:01;;;;;;;10.23;9.93;;;25.90;99.90;;;;;;5079538;28;20222;-83
2022/06/05 13:28:46;;;;;;;9.90;9.60;;;25.30;99.90;;;;;;5079889;28;20219;-82
2022/06/05 13:31:36;;;;;;;9.80;9.50;;;24.70;99.90;;;;;;5079907;28;20195;-81
2022/06/05 13:34:21;;;;;;;9.98;9.68;;;24.00;99.90;;;;;;5079868;28;20245;-81
2022/06/05 13:36:58;;;;;;;10.25;9.95;;;23.60;99.90;;;;;;5079671;28;20231;-83
2022/06/05 13:39:37;;;;;;;9.90;9.60;;;23.30;99.90;;;;;;5079616;28;20226;-82
2022/06/05 13:42:15;;;;;;;9.77;9.48;;;23.00;99.90;;;;;;5079159;28;20223;-81
2022/06/05 13:44:45;;;;;;;9.88;9.57;;;22.80;99.90;;;;;;5079993;28;20253;-83
2022/06/05 13:47:33;;;;;;;9.95;9.65;;;22.80;99.90;;;;;;5079967;28;20210;-81
2022/06/05 13:50:20;;;;;;;9.80;9.50;;;22.70;99.90;;;;;;5070117;28;20235;-83
2022/06/05 13:52:57;;;;;;;9.95;9.65;;;22.40;99.90;;;;;;5067746;28;20231;-84
2022/06/05 13:55:37;;;;;;;9.90;9.60;;;22.10;99.90;;;;;;5069384;28;20242;-83
2022/06/05 13:58:22;;;;;;;10.13;9.82;;;21.90;99.90;;;;;;5068395;28;20238;-83
2022/06/05 14:01:00;;;;;;;9.82;9.52;;;21.70;99.90;;;;;;5068697;28;20238;-83
2022/06/05 14:03:41;;;;;;;9.90;9.60;;;21.60;99.90;;;;;;5069124;28;20253;-84
2022/06/05 14:09:05;;;;;;;9.60;9.30;;;21.40;99.90;;;;;;5069309;28;20226;-84
2022/06/05 14:11:42;;;;;;;9.88;9.57;;;21.20;99.90;;;;;;5066738;28;20234;-84
2022/06/05 14:14:19;;;;;;;10.07;9.77;;;21.10;99.90;;;;;;5067319;28;20222;-84
2022/06/05 14:16:50;;;;;;;10.10;9.80;;;21.00;99.90;;;;;;5066192;28;20277;-83
2022/06/05 14:19:27;;;;;;;9.95;9.65;;;20.90;99.90;;;;;;5068776;28;20253;-83
2022/06/05 14:21:57;;;;;;;10.05;9.75;;;20.80;99.90;;;;;;5070198;28;20261;-83
2022/06/05 14:24:28;;;;;;;9.90;9.60;;;20.80;99.90;;;;;;5069112;28;20215;-83
2022/06/05 14:26:58;;;;;;;9.75;9.45;;;20.60;99.90;;;;;;5069050;28;20242;-83
2022/06/05 14:29:34;;;;;;;9.60;9.30;;;20.60;99.90;;;;;;5069113;28;20227;-82
2022/06/05 14:32:09;;;;;;;9.52;9.23;;;20.60;99.90;;;;;;5068067;28;20280;-83
2022/06/05 14:34:45;;;;;;;9.70;9.40;;;20.70;99.90;;;;;;5067893;28;20296;-84
2022/06/05 14:37:31;;;;;;;9.35;9.05;;;20.80;99.90;;;;;;5070979;28;20238;-83
2022/06/05 14:40:09;;;;;;;9.40;9.10;;;20.80;99.90;;;;;;5071771;28;20234;-84
2022/06/05 14:42:47;;;;;;;9.38;9.07;;;20.90;99.90;;;;;;5069469;28;20237;-84
2022/06/05 14:45:36;;;;;;;9.30;9.00;;;20.90;99.90;;;;;;5069425;28;20299;-83
2022/06/05 14:48:15;;;;;;;9.60;9.30;;;21.00;99.90;;;;;;5069345;28;20223;-84
2022/06/05 14:50:50;;;;;;;9.75;9.45;;;21.00;99.90;;;;;;5073460;28;20230;-83
2022/06/05 14:53:32;;;;;;;9.90;9.60;;;21.00;99.90;;;;;;5071179;28;20310;-82
2022/06/05 14:59:03;;;;;;;9.68;9.38;;;21.00;99.90;;;;;;5071465;28;20211;-82
2022/06/05 15:01:41;;;;;;;9.73;9.43;;;21.10;99.90;;;;;;5070325;28;20243;-82
2022/06/05 15:04:22;;;;;;;10.00;9.70;;;21.10;99.90;;;;;;5069788;28;20218;-82
2022/06/05 15:07:00;;;;;;;9.80;9.50;;;21.20;99.90;;;;;;5069329;28;20309;-84
2022/06/05 15:09:36;;;;;;;9.80;9.50;;;21.20;99.90;;;;;;5070561;28;20227;-82
2022/06/05 15:12:14;;;;;;;9.68;9.38;;;21.40;99.90;;;;;;5071414;28;20235;-82
2022/06/05 15:14:52;;;;;;;9.65;9.35;;;21.50;99.90;;;;;;5069763;28;20241;-83
2022/06/05 15:17:37;;;;;;;9.80;9.50;;;21.60;99.90;;;;;;5069973;28;20283;-84
2022/06/05 15:20:11;;;;;;;9.70;9.40;;;21.70;99.90;;;;;;5070743;28;20238;-82
2022/06/05 15:22:57;;;;;;;9.80;9.50;;;21.80;99.90;;;;;;5070204;28;20235;-83
2022/06/05 15:25:35;;;;;;;10.00;9.70;;;21.90;99.90;;;;;;5069088;28;20290;-83
2022/06/05 15:28:13;;;;;;;9.68;9.38;;;22.00;99.90;;;;;;5070924;28;20237;-81
2022/06/05 15:30:51;;;;;;;9.40;9.10;;;22.00;99.90;;;;;;5069262;28;20233;-82
2022/06/05 15:33:38;;;;;;;9.38;9.07;;;22.10;99.90;;;;;;5079368;28;20273;-81
2022/06/05 15:36:16;;;;;;;9.40;9.10;;;22.20;99.90;;;;;;5078435;28;20234;-83
2022/06/05 15:39:12;;;;;;;9.60;9.30;;;22.20;99.90;;;;;;5074179;28;20243;-83
2022/06/05 15:42:00;;;;;;;9.65;9.35;;;22.20;99.90;;;;;;5072210;28;20300;-83
2022/06/05 15:45:03;;;;;;;9.40;9.10;;;22.30;99.90;;;;;;5070279;28;20298;-83
2022/06/05 15:47:50;;;;;;;9.27;8.98;;;22.30;99.90;;;;;;5068513;28;20223;-83
2022/06/05 15:50:37;;;;;;;9.70;9.40;;;22.30;99.90;;;;;;5070082;28;20215;-82
2022/06/05 15:53:42;;;;;;;9.70;9.40;;;22.30;99.90;;;;;;5069099;28;20226;-81
2022/06/05 15:56:31;;;;;;;9.80;9.50;;;22.30;99.90;;;;;;5062423;28;20253;-84
2022/06/05 15:59:24;;;;;;;9.70;9.40;;;22.50;99.90;;;;;;5069500;28;20235;-82
2022/06/05 16:02:04;;;;;;;9.90;9.60;;;22.60;99.90;;;;;;5068138;28;20215;-84
2022/06/05 16:04:42;;;;;;;9.60;9.30;;;22.60;99.90;;;;;;5067905;28;20230;-83
2022/06/05 16:07:19;;;;;;;9.65;9.35;;;22.50;99.90;;;;;;5067911;28;20724;-84
2022/06/05 16:09:57;;;;;;;9.60;9.30;;;22.50;99.90;;;;;;5066269;28;20227;-84
2022/06/05 16:15:22;;;;;;;9.70;9.40;;;22.50;99.90;;;;;;5066567;28;20239;-83
2022/06/05 16:18:04;;;;;;;9.90;9.60;;;22.60;99.90;;;;;;5067086;28;20230;-84
2022/06/05 16:20:57;;;;;;;9.80;9.50;;;22.60;99.90;;;;;;5065822;28;20261;-84
2022/06/05 16:23:52;;;;;;;10.15;9.85;;;22.70;99.90;;;;;;5066224;28;20227;-83
2022/06/05 16:26:31;;;;;;;9.60;9.30;;;22.60;99.90;;;;;;5066451;28;20277;-81
2022/06/05 16:29:09;;;;;;;9.77;9.48;;;22.70;99.90;;;;;;5068163;28;20219;-82
2022/06/05 16:31:47;;;;;;;9.73;9.43;;;22.70;99.90;;;;;;5065697;28;20231;-83
2022/06/05 16:40:28;;;;;;;9.48;9.18;;;22.90;99.90;;;;;;5068979;28;20234;-82
2022/06/05 16:43:07;;;;;;;9.35;9.05;;;22.60;99.90;;;;;;5065380;28;20253;-82
2022/06/05 16:45:37;;;;;;;9.50;9.20;;;22.50;99.90;;;;;;5067934;28;20229;-84
2022/06/05 16:51:04;;;;;;;9.77;9.48;;;22.50;99.90;;;;;;5067017;28;20219;-82
2022/06/05 16:53:39;;;;;;;9.50;9.20;;;22.50;99.90;;;;;;5067574;28;20227;-82
2022/06/05 16:57:39;;;;;;;;;;;;;;;;;;;;;
2022/06/05 17:01:11;;;;;;;9.57;9.27;;;22.40;99.90;;;;;;5079761;28;20226;-91
2022/06/05 17:08:55;;;;;;;;;;;;;;;;;;;;;
2022/06/05 17:12:48;;;;;;;9.70;9.40;;;21.60;99.90;;;;;;5003861;28;20232;-90
2022/06/05 17:16:11;;;;;;;9.57;9.27;;;21.40;99.90;;;;;;5003489;28;20268;-91
2022/06/05 17:23:43;;;;;;;9.65;9.35;;;21.10;99.90;;;;;;4966056;28;20281;-91
2022/06/05 18:24:40;;;;;;;10.23;9.93;;;20.10;99.90;;;;;;5049961;28;20229;-91
2022/06/05 19:00:15;;;;;;;;;;;;;;;;;;;;;
2022/06/05 19:10:40;;;;;;;9.77;9.48;;;19.50;99.90;;;;;;5005479;28;20225;-91
2022/06/05 22:24:25;;;;;;;10.00;9.70;;;17.00;99.90;;;;;;5023832;28;20214;-89
2022/06/05 22:27:19;;;;;;;9.93;9.63;;;16.90;99.90;;;;;;5014908;28;20241;-90
2022/06/05 22:31:20;;;;;;;;;;;;;;;;;;;;;
2022/06/05 22:42:29;;;;;;;;;;;;;;;;;;;;;
2022/06/05 22:55:53;;;;;;;10.00;9.70;;;16.60;99.90;;;;;;5092547;22;20247;-81
2022/06/05 22:58:24;;;;;;;9.95;9.65;;;16.70;99.90;;;;;;5090758;28;20293;-84
2022/06/05 23:00:54;;;;;;;10.07;9.77;;;16.60;99.90;;;;;;5090592;28;20253;-82
2022/06/05 23:03:23;;;;;;;9.95;9.65;;;16.60;99.90;;;;;;5091023;28;20332;-81
2022/06/05 23:05:52;;;;;;;9.93;9.63;;;16.60;99.90;;;;;;5089122;28;20238;-82
2022/06/05 23:08:21;;;;;;;9.98;9.68;;;16.60;99.90;;;;;;5071429;28;20227;-82
2022/06/05 23:10:51;;;;;;;10.15;9.85;;;16.60;99.90;;;;;;5070206;28;20296;-82
2022/06/05 23:13:30;;;;;;;10.15;9.85;;;16.60;99.90;;;;;;5069507;28;20269;-82
2022/06/05 23:15:58;;;;;;;10.07;9.77;;;16.60;99.90;;;;;;5067745;28;20244;-82
2022/06/05 23:19:37;;;;;;;10.00;9.70;;;16.60;99.90;;;;;;5066827;28;20230;-82
2022/06/05 23:21:16;;;;;;;9.93;9.63;;;16.60;99.90;;;;;;5065997;28;20231;-82
2022/06/05 23:23:44;;;;;;;9.95;9.65;;;16.60;99.90;;;;;;5069045;28;20213;-82
2022/06/05 23:26:14;;;;;;;10.00;9.70;;;16.60;99.90;;;;;;5067123;28;20231;-82
2022/06/05 23:28:46;;;;;;;10.13;9.82;;;16.60;99.90;;;;;;5067084;28;20246;-82
2022/06/05 23:31:14;;;;;;;10.02;9.73;;;16.60;99.90;;;;;;5066991;28;20261;-81
2022/06/05 23:33:42;;;;;;;9.98;9.68;;;16.50;99.90;;;;;;5066558;28;20231;-82
2022/06/05 23:36:21;;;;;;;9.90;9.60;;;16.40;99.90;;;;;;5067246;28;20246;-84
2022/06/05 23:38:50;;;;;;;10.05;9.75;;;16.40;99.90;;;;;;5066528;28;20271;-81
2022/06/05 23:41:20;;;;;;;9.80;9.50;;;16.30;99.90;;;;;;5066427;28;20227;-81
2022/06/05 23:43:52;;;;;;;9.93;9.63;;;16.30;99.90;;;;;;5066881;28;20261;-81
2022/06/05 23:49:05;;;;;;;9.80;9.50;;;16.20;99.90;;;;;;5066894;28;20728;-81
2022/06/05 23:51:34;;;;;;;10.05;9.75;;;16.10;99.90;;;;;;5067557;28;20261;-82
2022/06/05 23:54:04;;;;;;;9.90;9.60;;;16.10;99.90;;;;;;5066976;28;20285;-82
2022/06/05 23:59:22;;;;;;;9.80;9.50;;;16.00;99.90;;;;;;5044322;28;20234;-82
